Time;durP1;ratioP1;P1;durP2;ratioP2;P2;SDS_P1;SDS_P2;PMS_P1;PMS_P2;Temp;Humidity;BMP_temperature;BMP_pressure;BME280_temperature;BME280_humidity;BME280_pressure;Samples;Min_cycle;Max_cycle;Signal;HPM_P1;HPM_P2
2021/05/17 00:00:46;;;;;;;4.40;2.65;;;9.10;99.90;;;;;;5088193;28;20035;-55
2021/05/17 00:03:13;;;;;;;6.07;2.60;;;9.10;99.90;;;;;;5096381;28;20502;-55
2021/05/17 00:05:39;;;;;;;8.57;2.75;;;9.10;99.90;;;;;;5088476;28;20063;-55
2021/05/17 00:08:06;;;;;;;7.55;2.50;;;9.10;99.90;;;;;;5094355;28;20516;-54
2021/05/17 00:10:33;;;;;;;4.05;2.75;;;9.20;99.90;;;;;;5080831;28;20766;-53
2021/05/17 00:12:59;;;;;;;5.72;2.70;;;9.20;99.90;;;;;;5088857;28;20035;-54
2021/05/17 00:15:25;;;;;;;7.85;3.47;;;9.20;99.90;;;;;;5094974;28;20028;-55
2021/05/17 00:17:52;;;;;;;3.53;2.35;;;9.30;99.90;;;;;;5091124;28;20555;-54
2021/05/17 00:20:18;;;;;;;5.95;2.20;;;9.30;99.90;;;;;;5087365;28;20082;-57
2021/05/17 00:22:45;;;;;;;6.80;2.10;;;9.40;99.90;;;;;;5094852;28;20436;-56
2021/05/17 00:25:11;;;;;;;7.35;2.08;;;9.40;99.90;;;;;;5097811;28;20059;-54
2021/05/17 00:27:37;;;;;;;4.90;2.00;;;9.50;99.90;;;;;;5090402;28;20070;-57
2021/05/17 00:30:06;;;;;;;5.57;1.73;;;9.60;99.90;;;;;;5086884;28;20441;-56
2021/05/17 00:32:32;;;;;;;6.57;2.17;;;9.60;99.90;;;;;;5093277;28;20028;-56
2021/05/17 00:34:57;;;;;;;5.85;3.03;;;9.60;99.90;;;;;;5088940;28;20046;-57
2021/05/17 00:37:24;;;;;;;6.40;1.98;;;9.70;99.90;;;;;;5090017;28;20024;-56
2021/05/17 00:39:49;;;;;;;4.70;1.60;;;9.70;99.90;;;;;;5097188;28;20036;-56
2021/05/17 00:42:15;;;;;;;3.42;1.50;;;9.70;99.90;;;;;;5087920;28;20036;-52
2021/05/17 00:44:41;;;;;;;2.60;1.85;;;9.70;99.90;;;;;;5084920;28;20040;-54
2021/05/17 00:47:11;;;;;;;5.75;1.85;;;9.70;99.90;;;;;;5091186;28;20059;-55
2021/05/17 00:49:39;;;;;;;2.25;1.77;;;9.80;99.90;;;;;;5095047;28;20052;-54
2021/05/17 00:52:05;;;;;;;3.70;1.85;;;9.80;99.90;;;;;;5093742;28;20557;-52
2021/05/17 00:54:31;;;;;;;4.53;1.73;;;9.90;99.90;;;;;;5092414;28;20028;-53
2021/05/17 00:56:57;;;;;;;2.60;1.27;;;10.00;99.90;;;;;;5095483;28;20442;-53
2021/05/17 00:59:22;;;;;;;3.40;1.45;;;10.10;99.90;;;;;;5082975;28;20048;-54
2021/05/17 01:01:48;;;;;;;1.75;1.05;;;10.10;99.90;;;;;;5096026;28;20084;-52
2021/05/17 01:04:13;;;;;;;5.50;1.50;;;10.20;99.90;;;;;;5086918;28;20036;-53
2021/05/17 01:06:42;;;;;;;2.63;0.95;;;10.20;99.90;;;;;;5102446;28;20031;-56
2021/05/17 01:09:08;;;;;;;2.97;1.40;;;10.20;99.90;;;;;;5092749;28;20024;-55
2021/05/17 01:11:35;;;;;;;6.90;1.10;;;10.30;99.90;;;;;;5095853;28;20079;-53
2021/05/17 01:14:04;;;;;;;2.88;1.10;;;10.40;99.90;;;;;;5095384;28;20026;-57
2021/05/17 01:16:31;;;;;;;3.67;1.20;;;10.30;99.90;;;;;;5090213;28;20034;-54
2021/05/17 01:18:57;;;;;;;2.88;1.20;;;10.40;99.90;;;;;;5096265;28;20028;-52
2021/05/17 01:21:26;;;;;;;3.13;1.20;;;10.40;99.90;;;;;;5091765;28;20053;-52
2021/05/17 01:23:55;;;;;;;2.92;1.20;;;10.40;99.90;;;;;;5093865;28;20032;-56
2021/05/17 01:26:30;;;;;;;2.40;1.25;;;10.40;99.90;;;;;;5090767;28;20024;-54
2021/05/17 01:28:57;;;;;;;3.45;1.13;;;10.30;99.90;;;;;;5091548;28;20032;-57
2021/05/17 01:31:24;;;;;;;2.15;1.48;;;10.30;99.90;;;;;;5098482;28;20089;-52
2021/05/17 01:33:50;;;;;;;5.47;1.20;;;10.40;99.90;;;;;;5087921;28;20082;-52
2021/05/17 01:36:17;;;;;;;3.00;1.20;;;10.30;99.90;;;;;;5096880;28;20090;-52
2021/05/17 01:38:54;;;;;;;2.08;1.23;;;10.30;99.90;;;;;;5092868;28;20027;-52
2021/05/17 01:41:22;;;;;;;3.42;1.35;;;10.30;99.90;;;;;;5097337;28;20073;-56
2021/05/17 01:43:55;;;;;;;3.17;1.52;;;10.30;99.90;;;;;;5087162;28;20491;-54
2021/05/17 01:46:27;;;;;;;2.63;1.23;;;10.20;99.90;;;;;;5098527;28;20031;-55
2021/05/17 01:48:58;;;;;;;6.07;1.27;;;10.30;99.90;;;;;;5095108;28;20024;-54
2021/05/17 01:51:24;;;;;;;8.05;1.20;;;10.30;99.90;;;;;;5088396;28;20098;-55
2021/05/17 01:53:51;;;;;;;3.35;1.70;;;10.30;99.90;;;;;;5097502;28;20024;-54
2021/05/17 01:56:18;;;;;;;2.60;1.10;;;10.30;99.90;;;;;;5084534;28;20024;-55
2021/05/17 01:58:43;;;;;;;1.73;1.20;;;10.30;99.90;;;;;;5091841;28;20060;-55
2021/05/17 02:01:11;;;;;;;2.97;1.10;;;10.30;99.90;;;;;;5101923;28;20497;-53
2021/05/17 02:03:39;;;;;;;2.45;1.35;;;10.30;99.90;;;;;;5096024;28;20397;-54
2021/05/17 02:06:06;;;;;;;4.03;1.10;;;10.20;99.90;;;;;;5092327;28;20032;-58
2021/05/17 02:08:32;;;;;;;3.20;1.00;;;10.30;99.90;;;;;;5094506;28;20107;-52
2021/05/17 02:10:59;;;;;;;3.28;1.25;;;10.30;99.90;;;;;;5093675;28;20031;-55
2021/05/17 02:13:26;;;;;;;4.18;1.20;;;10.30;99.90;;;;;;5089691;28;20046;-58
2021/05/17 02:15:52;;;;;;;4.07;1.27;;;10.30;99.90;;;;;;5087868;28;20031;-53
2021/05/17 02:18:18;;;;;;;3.35;1.30;;;10.30;99.90;;;;;;5106962;28;20032;-56
2021/05/17 02:20:45;;;;;;;5.18;1.48;;;10.30;99.90;;;;;;5099777;28;20077;-53
2021/05/17 02:23:14;;;;;;;5.15;1.10;;;10.30;99.90;;;;;;5090605;28;20118;-52
2021/05/17 02:25:49;;;;;;;1.80;1.00;;;10.30;99.90;;;;;;5090446;28;20044;-53
2021/05/17 02:28:17;;;;;;;4.03;1.58;;;10.30;99.90;;;;;;5089219;28;20452;-57
2021/05/17 02:30:44;;;;;;;2.97;1.17;;;10.30;99.90;;;;;;5097126;28;20028;-54
2021/05/17 02:33:13;;;;;;;3.47;1.40;;;10.30;99.90;;;;;;5100179;28;20490;-51
2021/05/17 02:35:39;;;;;;;3.03;1.35;;;10.30;99.90;;;;;;5095075;28;20042;-56
2021/05/17 02:38:06;;;;;;;6.03;1.67;;;10.30;99.90;;;;;;5099586;28;20115;-55
2021/05/17 02:40:32;;;;;;;4.70;1.50;;;10.20;99.90;;;;;;5097473;28;20114;-52
2021/05/17 02:43:01;;;;;;;1.48;1.17;;;10.30;99.90;;;;;;5098526;28;20539;-58
2021/05/17 02:45:28;;;;;;;3.17;1.45;;;10.30;99.90;;;;;;5090485;28;20028;-54
2021/05/17 02:47:55;;;;;;;4.05;1.67;;;10.20;99.90;;;;;;5098286;28;20103;-56
2021/05/17 02:50:33;;;;;;;2.28;1.40;;;10.20;99.90;;;;;;5103715;28;20047;-56
2021/05/17 02:53:00;;;;;;;1.65;1.25;;;10.20;99.90;;;;;;5084105;28;20073;-53
2021/05/17 02:55:31;;;;;;;4.97;1.75;;;10.10;99.90;;;;;;5089999;28;20044;-53
2021/05/17 02:58:07;;;;;;;3.42;1.40;;;10.10;99.90;;;;;;5098365;28;20027;-53
2021/05/17 03:00:36;;;;;;;1.88;1.20;;;10.10;99.90;;;;;;5087784;28;20063;-52
2021/05/17 03:03:14;;;;;;;4.40;1.65;;;10.00;99.90;;;;;;5090255;28;20050;-53
2021/05/17 03:05:41;;;;;;;3.10;1.33;;;9.90;99.90;;;;;;5091240;28;20028;-54
2021/05/17 03:08:13;;;;;;;4.53;2.15;;;9.90;99.90;;;;;;5089172;28;20457;-56
2021/05/17 03:10:46;;;;;;;5.00;2.05;;;9.80;99.90;;;;;;5093935;28;20390;-53
2021/05/17 03:13:17;;;;;;;5.43;1.70;;;9.70;99.90;;;;;;5088016;28;20016;-53
2021/05/17 03:15:45;;;;;;;5.10;1.70;;;9.70;99.90;;;;;;5101975;28;20071;-54
2021/05/17 03:18:11;;;;;;;10.38;2.08;;;9.70;99.90;;;;;;5092399;28;20020;-52
2021/05/17 03:20:37;;;;;;;4.13;2.00;;;9.60;99.90;;;;;;5092505;28;20055;-52
2021/05/17 03:23:11;;;;;;;5.40;2.00;;;9.60;99.90;;;;;;5090812;28;20662;-52
2021/05/17 03:25:38;;;;;;;5.60;2.00;;;9.60;99.90;;;;;;5089962;28;20166;-52
2021/05/17 03:28:04;;;;;;;3.83;1.88;;;9.60;99.90;;;;;;5089406;28;20152;-54
2021/05/17 03:30:30;;;;;;;4.60;2.13;;;9.60;99.90;;;;;;5097776;28;20035;-55
2021/05/17 03:32:55;;;;;;;3.65;2.40;;;9.60;99.90;;;;;;5095355;28;20039;-52
2021/05/17 03:35:21;;;;;;;3.97;2.13;;;9.60;99.90;;;;;;5096111;28;20028;-53
2021/05/17 03:37:47;;;;;;;5.07;2.53;;;9.60;99.90;;;;;;5095595;28;20031;-57
2021/05/17 03:40:15;;;;;;;2.10;1.90;;;9.60;99.90;;;;;;5090829;28;20032;-54
2021/05/17 03:42:41;;;;;;;6.47;2.38;;;9.60;99.90;;;;;;5090689;28;20296;-53
2021/05/17 03:45:09;;;;;;;7.63;2.60;;;9.50;99.90;;;;;;5091803;28;20028;-54
2021/05/17 03:47:34;;;;;;;6.10;2.70;;;9.50;99.90;;;;;;5094460;28;20490;-55
2021/05/17 03:50:00;;;;;;;3.45;2.25;;;9.40;99.90;;;;;;5090299;28;20034;-53
2021/05/17 03:52:26;;;;;;;2.88;2.50;;;9.50;99.90;;;;;;5098429;28;20059;-54
2021/05/17 03:54:51;;;;;;;6.22;2.63;;;9.40;99.90;;;;;;5089533;28;20110;-56
2021/05/17 03:57:17;;;;;;;5.90;2.55;;;9.50;99.90;;;;;;5097992;28;20093;-53
2021/05/17 03:59:45;;;;;;;5.15;2.58;;;9.50;99.90;;;;;;5092609;28;20020;-55
2021/05/17 04:02:14;;;;;;;5.05;3.03;;;9.50;99.90;;;;;;5100708;28;20122;-54
2021/05/17 04:04:45;;;;;;;5.85;2.80;;;9.50;99.90;;;;;;5089729;28;20020;-52
2021/05/17 04:15:14;;;;;;;4.07;2.65;;;9.80;99.90;;;;;;5087658;28;20039;-53
2021/05/17 04:17:40;;;;;;;6.78;2.90;;;9.80;99.90;;;;;;5094533;28;20035;-53
2021/05/17 04:20:06;;;;;;;4.13;2.42;;;9.90;99.90;;;;;;5086944;28;20073;-55
2021/05/17 04:22:32;;;;;;;4.72;2.70;;;9.90;99.90;;;;;;5094128;28;20105;-52
2021/05/17 04:24:57;;;;;;;6.00;2.65;;;9.90;99.90;;;;;;5085600;28;20053;-56
2021/05/17 04:27:23;;;;;;;6.50;2.38;;;10.00;99.90;;;;;;5092037;28;20101;-54
2021/05/17 04:29:49;;;;;;;8.88;2.75;;;10.10;99.90;;;;;;5086496;28;20032;-56
2021/05/17 04:32:14;;;;;;;5.60;2.67;;;10.10;99.90;;;;;;5101801;28;20039;-56
2021/05/17 04:34:40;;;;;;;5.25;2.83;;;10.20;99.90;;;;;;5088921;28;20028;-54
2021/05/17 04:37:05;;;;;;;3.20;2.78;;;10.20;99.90;;;;;;5095347;28;20153;-56
2021/05/17 04:39:31;;;;;;;5.03;2.70;;;10.30;99.90;;;;;;5092676;28;20028;-52
2021/05/17 04:41:56;;;;;;;4.22;2.05;;;10.40;99.90;;;;;;5095345;28;20028;-56
2021/05/17 04:44:22;;;;;;;5.43;2.45;;;10.40;99.90;;;;;;5090919;28;20409;-56
2021/05/17 04:46:47;;;;;;;7.07;2.72;;;10.40;99.90;;;;;;5092291;28;20032;-58
2021/05/17 04:49:13;;;;;;;3.63;1.90;;;10.50;99.90;;;;;;5089482;28;20028;-57
2021/05/17 04:51:38;;;;;;;5.75;1.90;;;10.60;99.90;;;;;;5089498;28;20032;-58
2021/05/17 04:54:05;;;;;;;2.30;2.08;;;10.70;99.90;;;;;;5094565;28;20040;-56
2021/05/17 04:56:30;;;;;;;4.72;2.00;;;10.70;99.90;;;;;;5098313;28;20436;-56
2021/05/17 04:58:56;;;;;;;4.47;1.77;;;10.80;99.90;;;;;;5096553;28;20047;-55
2021/05/17 05:01:21;;;;;;;4.93;1.85;;;10.90;99.90;;;;;;5087158;28;20502;-54
2021/05/17 05:03:47;;;;;;;11.70;1.90;;;10.90;99.90;;;;;;5091510;28;20025;-57
2021/05/17 05:06:12;;;;;;;4.18;1.80;;;11.00;99.90;;;;;;5100847;28;20035;-55
2021/05/17 05:08:38;;;;;;;5.90;2.10;;;11.10;99.90;;;;;;5091188;28;20024;-55
2021/05/17 05:11:03;;;;;;;7.82;2.08;;;11.20;99.90;;;;;;5090538;28;20028;-54
2021/05/17 05:13:29;;;;;;;3.35;1.73;;;11.20;99.90;;;;;;5090763;28;20103;-58
2021/05/17 05:15:55;;;;;;;11.65;2.38;;;11.20;99.90;;;;;;5091862;28;20041;-57
2021/05/17 05:18:21;;;;;;;4.57;1.70;;;11.10;99.90;;;;;;5089578;28;20036;-53
2021/05/17 05:20:47;;;;;;;4.57;1.60;;;11.20;99.90;;;;;;5092879;28;20497;-58
2021/05/17 05:23:15;;;;;;;4.88;1.98;;;11.20;99.90;;;;;;5087993;28;20059;-55
2021/05/17 05:28:28;;;;;;;4.97;1.80;;;11.10;99.90;;;;;;5090226;28;20028;-58
2021/05/17 05:30:59;;;;;;;1.73;1.45;;;11.10;99.90;;;;;;5094137;28;20020;-58
2021/05/17 05:33:26;;;;;;;4.90;1.70;;;11.10;99.90;;;;;;5102359;28;20035;-55
2021/05/17 05:35:51;;;;;;;5.43;1.95;;;11.20;99.90;;;;;;5092613;28;20020;-55
2021/05/17 05:38:17;;;;;;;5.22;1.80;;;11.30;99.90;;;;;;5100612;28;20031;-57
2021/05/17 05:40:42;;;;;;;7.85;1.90;;;11.30;99.90;;;;;;5098174;28;20035;-56
2021/05/17 05:43:08;;;;;;;5.75;1.80;;;11.30;99.90;;;;;;5100443;28;20062;-54
2021/05/17 05:45:34;;;;;;;2.08;1.67;;;11.40;99.90;;;;;;5083912;28;20039;-56
2021/05/17 05:48:00;;;;;;;5.18;1.90;;;11.50;99.90;;;;;;5093734;28;20225;-56
2021/05/17 05:50:26;;;;;;;4.55;1.60;;;11.50;99.90;;;;;;5086888;28;20970;-60
2021/05/17 05:52:52;;;;;;;3.00;1.77;;;11.60;99.90;;;;;;5095908;28;20023;-53
2021/05/17 05:55:18;;;;;;;6.40;1.67;;;11.70;99.90;;;;;;5105385;28;20024;-57
2021/05/17 05:57:44;;;;;;;2.65;1.80;;;11.80;99.90;;;;;;5100508;28;20035;-58
2021/05/17 06:00:14;;;;;;;2.35;1.63;;;11.80;99.90;;;;;;5096262;28;20028;-57
2021/05/17 06:02:40;;;;;;;3.88;1.50;;;12.00;99.90;;;;;;5107842;28;20115;-56
2021/05/17 06:05:07;;;;;;;4.00;1.90;;;12.10;99.90;;;;;;5090769;28;20115;-56
2021/05/17 06:07:32;;;;;;;3.28;1.33;;;12.30;99.90;;;;;;5095970;28;20444;-57
2021/05/17 06:09:58;;;;;;;3.03;1.23;;;12.40;99.90;;;;;;5098454;28;20024;-57
2021/05/17 06:12:25;;;;;;;5.97;1.80;;;12.50;99.90;;;;;;5112678;28;20028;-57
2021/05/17 06:14:58;;;;;;;7.05;1.90;;;12.50;99.90;;;;;;5104067;28;20039;-56
2021/05/17 06:17:24;;;;;;;4.10;1.40;;;12.50;99.90;;;;;;5092975;28;20127;-55
2021/05/17 06:19:49;;;;;;;2.60;1.45;;;12.50;99.90;;;;;;5093536;28;20020;-56
2021/05/17 06:22:15;;;;;;;5.38;1.48;;;12.50;99.90;;;;;;5090309;28;20027;-56
2021/05/17 06:24:41;;;;;;;3.92;1.00;;;12.50;99.90;;;;;;5090514;28;20405;-55
2021/05/17 06:27:07;;;;;;;5.00;1.30;;;12.60;99.90;;;;;;5098708;28;20020;-56
2021/05/17 06:29:33;;;;;;;4.43;1.60;;;12.60;99.90;;;;;;5089859;28;20057;-53
2021/05/17 06:31:59;;;;;;;3.72;1.15;;;12.60;99.90;;;;;;5093637;28;20028;-52
2021/05/17 06:34:25;;;;;;;4.95;1.40;;;12.70;99.90;;;;;;5107645;28;20099;-53
2021/05/17 06:36:51;;;;;;;5.63;1.80;;;12.80;99.90;;;;;;5095830;28;20116;-53
2021/05/17 06:39:16;;;;;;;6.63;1.67;;;12.80;99.90;;;;;;5098366;28;20032;-58
2021/05/17 06:41:42;;;;;;;5.45;1.23;;;12.90;99.90;;;;;;5103156;28;20054;-55
2021/05/17 06:44:08;;;;;;;3.33;1.08;;;13.10;99.90;;;;;;5091887;28;20043;-57
2021/05/17 06:46:35;;;;;;;2.22;0.90;;;13.20;99.90;;;;;;5097343;28;20039;-58
2021/05/17 06:49:01;;;;;;;7.93;1.08;;;13.20;99.90;;;;;;5087572;28;20108;-53
2021/05/17 06:51:27;;;;;;;3.10;0.75;;;13.30;99.90;;;;;;5085827;28;20110;-56
2021/05/17 06:53:57;;;;;;;3.13;0.80;;;13.30;99.90;;;;;;5092360;28;20585;-56
2021/05/17 06:56:27;;;;;;;3.50;0.80;;;13.50;99.90;;;;;;5092116;28;20024;-53
2021/05/17 07:01:19;;;;;;;2.90;1.05;;;13.60;99.90;;;;;;5096266;28;20020;-53
2021/05/17 07:03:44;;;;;;;3.95;1.00;;;13.80;99.90;;;;;;5093399;28;20077;-55
2021/05/17 07:06:13;;;;;;;10.52;0.93;;;13.80;99.90;;;;;;5086996;28;20132;-54
2021/05/17 07:11:35;;;;;;;1.48;0.40;;;13.90;99.90;;;;;;5087163;28;20509;-53
2021/05/17 07:14:00;;;;;;;2.75;0.60;;;13.90;99.90;;;;;;5090450;28;20082;-56
2021/05/17 07:16:26;;;;;;;0.90;0.57;;;13.80;99.90;;;;;;5099276;28;20430;-56
2021/05/17 07:18:51;;;;;;;1.58;0.63;;;13.70;99.90;;;;;;5098529;28;20405;-54
2021/05/17 07:23:43;;;;;;;2.30;0.73;;;13.60;99.90;;;;;;5087124;28;20485;-56
2021/05/17 07:26:14;;;;;;;6.30;1.27;;;13.50;99.90;;;;;;5089527;28;20031;-56
2021/05/17 07:28:40;;;;;;;1.60;0.90;;;13.50;99.90;;;;;;5091568;28;20027;-57
2021/05/17 07:31:08;;;;;;;12.93;1.30;;;13.50;99.90;;;;;;5071785;28;20509;-56
2021/05/17 07:33:34;;;;;;;2.60;0.90;;;13.50;99.90;;;;;;5089303;28;20028;-55
2021/05/17 07:36:00;;;;;;;3.00;1.20;;;13.60;99.90;;;;;;5096579;28;20109;-56
2021/05/17 07:38:30;;;;;;;2.58;0.90;;;13.60;99.90;;;;;;5085595;28;20036;-54
2021/05/17 07:40:57;;;;;;;2.85;0.95;;;13.60;99.90;;;;;;5086239;28;20024;-56
2021/05/17 07:43:23;;;;;;;3.88;1.10;;;13.80;99.90;;;;;;5089306;28;20020;-57
2021/05/17 07:45:49;;;;;;;4.15;1.02;;;13.80;99.90;;;;;;5094616;28;20027;-56
2021/05/17 07:48:16;;;;;;;4.05;1.13;;;14.00;99.90;;;;;;5088199;28;20366;-55
2021/05/17 07:50:42;;;;;;;7.07;1.55;;;14.10;99.90;;;;;;5090746;28;20052;-53
2021/05/17 07:53:08;;;;;;;5.43;1.08;;;14.10;99.90;;;;;;5089711;28;20033;-52
2021/05/17 07:55:33;;;;;;;3.05;0.65;;;14.20;99.90;;;;;;5091013;28;20389;-54
2021/05/17 07:57:59;;;;;;;1.05;0.60;;;14.20;99.90;;;;;;5081875;28;20410;-53
2021/05/17 08:00:25;;;;;;;1.83;0.70;;;14.20;99.90;;;;;;5087653;28;20024;-58
2021/05/17 08:02:50;;;;;;;3.35;0.60;;;14.30;99.90;;;;;;5091126;28;20108;-56
2021/05/17 08:05:17;;;;;;;3.00;0.70;;;14.20;99.90;;;;;;5090840;28;20040;-57
2021/05/17 08:07:43;;;;;;;4.45;0.80;;;14.40;99.90;;;;;;5094792;28;20099;-57
2021/05/17 08:10:10;;;;;;;2.83;1.15;;;14.40;99.90;;;;;;5081407;28;20439;-58
2021/05/17 08:12:36;;;;;;;1.17;0.57;;;14.60;99.90;;;;;;5086924;28;20107;-58
2021/05/17 08:15:02;;;;;;;2.22;0.60;;;14.50;99.90;;;;;;5089130;28;20112;-61
2021/05/17 08:17:27;;;;;;;6.43;0.75;;;14.60;99.90;;;;;;5080781;28;20066;-59
2021/05/17 08:19:53;;;;;;;5.68;0.85;;;14.60;99.90;;;;;;5090462;28;20036;-54
2021/05/17 08:22:19;;;;;;;5.82;0.70;;;14.50;99.90;;;;;;5087821;28;20063;-55
2021/05/17 08:24:44;;;;;;;2.50;0.90;;;14.20;99.90;;;;;;5090963;28;20051;-57
2021/05/17 08:27:10;;;;;;;6.18;0.70;;;14.10;99.90;;;;;;5095159;28;20505;-58
2021/05/17 08:29:37;;;;;;;2.72;0.98;;;14.20;99.90;;;;;;5092021;28;20032;-58
2021/05/17 08:32:07;;;;;;;2.88;0.90;;;14.20;99.90;;;;;;5087426;28;20031;-55
2021/05/17 08:34:32;;;;;;;7.35;1.00;;;14.20;99.90;;;;;;5094312;28;20496;-57
2021/05/17 08:36:59;;;;;;;5.85;0.82;;;14.00;99.90;;;;;;5090049;28;20032;-55
2021/05/17 08:39:25;;;;;;;4.40;0.88;;;13.80;99.90;;;;;;5088294;28;20505;-57
2021/05/17 08:41:50;;;;;;;4.55;1.00;;;13.80;99.90;;;;;;5088343;28;20070;-58
2021/05/17 08:44:16;;;;;;;2.20;0.70;;;13.70;99.90;;;;;;5092528;28;20020;-58
2021/05/17 08:46:47;;;;;;;7.95;0.88;;;13.60;99.90;;;;;;5089088;28;20402;-57
2021/05/17 08:49:13;;;;;;;7.38;1.10;;;13.20;99.90;;;;;;5092078;28;20024;-57
2021/05/17 08:51:39;;;;;;;5.88;0.80;;;13.10;99.90;;;;;;5088214;28;20031;-57
2021/05/17 08:54:06;;;;;;;4.47;0.90;;;12.90;99.90;;;;;;5093919;28;20024;-62
2021/05/17 08:56:34;;;;;;;34.47;2.63;;;12.80;99.90;;;;;;5097444;28;20082;-59
2021/05/17 08:59:02;;;;;;;3.28;0.90;;;12.70;99.90;;;;;;5088428;28;20405;-57
2021/05/17 09:01:28;;;;;;;39.22;6.10;;;12.60;99.90;;;;;;5092713;28;20032;-56
2021/05/17 09:04:04;;;;;;;4.97;1.42;;;12.50;99.90;;;;;;5092324;28;20038;-57
2021/05/17 09:06:40;;;;;;;5.30;1.40;;;12.50;99.90;;;;;;5083501;28;20036;-57
2021/05/17 09:09:26;;;;;;;4.50;1.92;;;12.50;99.90;;;;;;5090539;28;20032;-55
2021/05/17 09:11:54;;;;;;;5.70;1.63;;;12.70;99.90;;;;;;5092170;28;20020;-59
2021/05/17 09:14:21;;;;;;;5.05;1.77;;;13.00;99.90;;;;;;5088312;28;20074;-54
2021/05/17 09:16:59;;;;;;;7.88;1.63;;;13.00;99.90;;;;;;5093301;28;20102;-56
2021/05/17 09:19:26;;;;;;;7.55;1.60;;;13.10;99.90;;;;;;5091238;28;20513;-55
2021/05/17 09:21:55;;;;;;;6.18;1.95;;;13.30;99.90;;;;;;5098654;28;20444;-54
2021/05/17 09:24:35;;;;;;;9.13;1.77;;;13.30;99.90;;;;;;5092056;28;20031;-51
2021/05/17 09:27:01;;;;;;;7.35;1.23;;;13.50;99.90;;;;;;5085092;28;20032;-53
2021/05/17 09:29:27;;;;;;;3.03;1.08;;;13.50;99.90;;;;;;5088507;28;20097;-54
2021/05/17 09:31:54;;;;;;;4.25;1.05;;;13.90;99.90;;;;;;5087609;28;20024;-58
2021/05/17 09:34:33;;;;;;;5.20;1.15;;;14.10;99.90;;;;;;5098879;28;20374;-56
2021/05/17 09:37:02;;;;;;;3.97;0.90;;;14.50;99.90;;;;;;5088288;28;20040;-55
2021/05/17 09:39:28;;;;;;;2.38;0.60;;;14.70;99.90;;;;;;5092177;28;20032;-58
2021/05/17 09:41:56;;;;;;;4.50;0.75;;;15.10;99.90;;;;;;5097646;28;20096;-55
2021/05/17 09:44:27;;;;;;;4.18;0.80;;;15.20;99.90;;;;;;5083622;28;20040;-56
2021/05/17 09:47:09;;;;;;;3.10;0.80;;;15.00;99.90;;;;;;5092438;28;20066;-55
2021/05/17 09:49:45;;;;;;;5.18;1.10;;;15.10;99.90;;;;;;5092938;28;20390;-55
2021/05/17 09:52:17;;;;;;;5.00;1.00;;;15.00;99.90;;;;;;5089013;28;20028;-56
2021/05/17 09:54:46;;;;;;;1.83;0.80;;;14.90;99.90;;;;;;5087542;28;20027;-56
2021/05/17 09:57:16;;;;;;;5.57;0.90;;;15.00;99.90;;;;;;5084788;28;20024;-58
2021/05/17 09:59:46;;;;;;;3.25;0.80;;;15.00;99.90;;;;;;5092461;28;20040;-59
2021/05/17 10:02:33;;;;;;;4.40;0.68;;;15.10;99.90;;;;;;5100701;28;20035;-59
2021/05/17 10:05:28;;;;;;;4.70;0.93;;;15.30;99.90;;;;;;5084762;28;20046;-57
2021/05/17 10:08:05;;;;;;;3.90;0.80;;;15.30;99.90;;;;;;5091159;28;20495;-58
2021/05/17 10:10:31;;;;;;;3.22;0.98;;;15.70;99.90;;;;;;5098391;28;20539;-59
2021/05/17 10:13:03;;;;;;;2.50;0.90;;;16.10;99.90;;;;;;5092260;28;20020;-58
2021/05/17 10:15:33;;;;;;;2.22;0.65;;;16.40;99.90;;;;;;5095378;28;20032;-58
2021/05/17 10:17:59;;;;;;;3.38;1.17;;;16.40;99.90;;;;;;5097008;28;20027;-57
2021/05/17 10:20:26;;;;;;;1.85;0.80;;;16.40;99.90;;;;;;5084168;28;20048;-59
2021/05/17 10:22:54;;;;;;;3.30;0.80;;;16.10;99.90;;;;;;5087170;28;20028;-58
2021/05/17 10:25:32;;;;;;;2.08;0.80;;;15.90;99.90;;;;;;5096398;28;20032;-57
2021/05/17 10:28:00;;;;;;;2.50;1.00;;;15.70;99.90;;;;;;5092258;28;20186;-57
2021/05/17 10:30:33;;;;;;;2.15;0.73;;;15.60;99.90;;;;;;5087962;28;20287;-56
2021/05/17 10:33:04;;;;;;;2.47;0.68;;;15.40;99.90;;;;;;5092564;28;20486;-57
2021/05/17 10:35:35;;;;;;;1.30;0.50;;;15.10;99.90;;;;;;5097307;28;20039;-56
2021/05/17 10:38:44;;;;;;;4.47;0.82;;;15.10;99.90;;;;;;5097764;28;20050;-57
2021/05/17 10:41:31;;;;;;;7.35;1.13;;;14.80;99.90;;;;;;5077049;28;20036;-58
2021/05/17 10:46:53;;;;;;;1.38;0.68;;;14.10;99.90;;;;;;5086243;28;20982;-60
2021/05/17 10:49:37;;;;;;;3.28;0.50;;;14.00;99.90;;;;;;5089771;28;20022;-57
2021/05/17 10:52:06;;;;;;;;;;;14.50;99.90;;;;;;5092802;28;20110;-59
2021/05/17 10:54:45;;;;;;;1.77;0.70;;;14.60;99.90;;;;;;5080166;28;19912;-58
2021/05/17 10:57:29;;;;;;;1.35;0.40;;;14.50;99.90;;;;;;5088124;28;20016;-56
2021/05/17 11:02:42;;;;;;;1.90;0.47;;;14.00;99.90;;;;;;5089828;28;20070;-56
2021/05/17 11:05:20;;;;;;;6.03;0.80;;;14.00;99.90;;;;;;5094963;28;20020;-53
2021/05/17 11:07:59;;;;;;;2.40;0.75;;;13.90;99.90;;;;;;5096862;28;20091;-53
2021/05/17 11:10:45;;;;;;;0.60;0.60;;;14.20;99.90;;;;;;5088162;28;20585;-58
2021/05/17 11:13:19;;;;;;;2.85;0.65;;;14.50;99.90;;;;;;5099701;28;20089;-58
2021/05/17 11:16:03;;;;;;;0.80;0.40;;;15.00;99.90;;;;;;5090247;28;20107;-55
2021/05/17 11:18:51;;;;;;;2.72;0.30;;;15.50;99.90;;;;;;5085406;28;20044;-53
2021/05/17 11:21:27;;;;;;;0.90;0.43;;;15.90;99.90;;;;;;5088081;28;20036;-57
2021/05/17 11:23:59;;;;;;;1.48;0.32;;;15.40;99.90;;;;;;5087958;28;20051;-61
2021/05/17 11:26:26;;;;;;;1.95;0.60;;;14.80;99.90;;;;;;5089615;28;20045;-54
2021/05/17 11:28:51;;;;;;;4.53;0.82;;;14.70;99.90;;;;;;5090266;28;20089;-60
2021/05/17 11:33:50;;;;;;;0.88;0.40;;;14.40;99.90;;;;;;5095286;28;20036;-53
2021/05/17 11:36:17;;;;;;;0.60;0.60;;;14.30;99.90;;;;;;5094323;28;20480;-56
2021/05/17 11:39:14;;;;;;;4.10;0.50;;;13.90;99.90;;;;;;5096055;28;20119;-53
2021/05/17 11:41:55;;;;;;;3.20;0.63;;;13.60;99.90;;;;;;5098244;28;20050;-56
2021/05/17 11:44:36;;;;;;;3.55;0.50;;;13.50;99.90;;;;;;5085289;28;20055;-56
2021/05/17 11:47:03;;;;;;;1.42;0.70;;;13.70;99.90;;;;;;5082868;28;20988;-61
2021/05/17 11:49:32;;;;;;;4.85;1.08;;;13.90;99.90;;;;;;5097198;28;20027;-60
2021/05/17 11:52:03;;;;;;;5.05;1.20;;;13.90;99.90;;;;;;5094889;28;20036;-58
2021/05/17 11:54:52;;;;;;;2.33;1.10;;;13.80;99.90;;;;;;5087270;28;20065;-57
2021/05/17 11:57:21;;;;;;;6.55;1.30;;;13.90;99.90;;;;;;5087612;28;20436;-56
2021/05/17 11:59:50;;;;;;;4.22;0.85;;;14.10;99.90;;;;;;5087933;28;20080;-57
2021/05/17 12:02:16;;;;;;;3.30;0.70;;;14.10;99.90;;;;;;5064963;28;20020;-57
2021/05/17 12:04:43;;;;;;;0.95;0.40;;;14.30;99.90;;;;;;5087281;28;20063;-58
2021/05/17 12:07:17;;;;;;;5.65;0.57;;;14.20;99.90;;;;;;5086258;28;20040;-54
2021/05/17 12:09:51;;;;;;;5.53;0.60;;;14.10;99.90;;;;;;5090517;28;20064;-52
2021/05/17 12:12:21;;;;;;;4.35;0.75;;;14.00;99.90;;;;;;5083784;28;20032;-56
2021/05/17 12:14:54;;;;;;;5.00;1.60;;;14.10;99.90;;;;;;5091915;28;20121;-56
2021/05/17 12:17:20;;;;;;;2.08;0.68;;;14.10;99.90;;;;;;5091172;28;20485;-56
2021/05/17 12:19:50;;;;;;;3.63;0.80;;;14.00;99.90;;;;;;5085953;28;20075;-54
2021/05/17 12:22:40;;;;;;;1.35;0.57;;;14.00;99.90;;;;;;5085813;28;20028;-58
2021/05/17 12:25:14;;;;;;;5.88;0.90;;;14.10;99.90;;;;;;5088390;28;20328;-55
2021/05/17 12:27:41;;;;;;;;;;;14.30;99.90;;;;;;5086469;28;20439;-57
2021/05/17 12:30:12;;;;;;;1.05;0.60;;;14.30;99.90;;;;;;5085807;28;19916;-58
2021/05/17 12:32:38;;;;;;;4.68;0.73;;;14.30;99.90;;;;;;5083780;28;20453;-55
2021/05/17 12:35:29;;;;;;;1.77;0.50;;;14.20;99.90;;;;;;5089764;28;20032;-56
2021/05/17 12:38:00;;;;;;;5.43;0.88;;;14.20;99.90;;;;;;5094956;28;20038;-58
2021/05/17 12:40:30;;;;;;;1.25;0.50;;;14.30;99.90;;;;;;5085490;28;20036;-56
2021/05/17 12:43:21;;;;;;;1.95;0.82;;;14.40;99.90;;;;;;5082718;28;20031;-57
2021/05/17 12:45:46;;;;;;;3.78;1.67;;;14.80;99.90;;;;;;5088880;28;20846;-56
2021/05/17 12:48:20;;;;;;;6.38;1.08;;;14.80;99.90;;;;;;5090264;28;20036;-57
2021/05/17 12:50:49;;;;;;;3.38;1.00;;;14.70;99.90;;;;;;5080118;28;20459;-58
2021/05/17 12:53:18;;;;;;;4.85;1.38;;;14.60;99.90;;;;;;5093502;28;20015;-57
2021/05/17 12:55:47;;;;;;;3.10;1.38;;;14.50;99.90;;;;;;5090901;28;20397;-55
2021/05/17 12:58:24;;;;;;;2.97;1.58;;;14.40;99.90;;;;;;5098206;28;20508;-57
2021/05/17 13:00:51;;;;;;;6.03;1.23;;;14.30;99.90;;;;;;5088689;28;20024;-58
2021/05/17 13:03:19;;;;;;;2.08;1.20;;;14.20;99.90;;;;;;5072145;28;20031;-57
2021/05/17 13:05:56;;;;;;;2.58;1.42;;;14.00;99.90;;;;;;5091142;28;20169;-53
2021/05/17 13:08:41;;;;;;;4.45;1.60;;;13.70;99.90;;;;;;5094830;28;20028;-56
2021/05/17 13:11:10;;;;;;;;;;;13.60;99.90;;;;;;5090834;28;20555;-56
2021/05/17 13:13:50;;;;;;;8.13;2.20;;;13.40;99.90;;;;;;5082365;28;19912;-57
2021/05/17 13:16:30;;;;;;;7.90;2.58;;;13.20;99.90;;;;;;5094431;28;20020;-55
2021/05/17 13:22:03;;;;;;;5.85;2.33;;;13.30;99.90;;;;;;5090745;28;20497;-52
2021/05/17 13:32:38;;;;;;;7.55;3.08;;;13.80;99.90;;;;;;5090615;28;20419;-53
2021/05/17 13:35:06;;;;;;;7.63;3.45;;;13.90;99.90;;;;;;5076839;28;20385;-54